sensor_id;sensor_type;location;lat;lon;timestamp;P1;durP1;ratioP1;P2;durP2;ratioP2
40635;SDS011;26642;55.766;37.828;2022-08-24T00:01:19;61.60;;;43.13;;
40635;SDS011;26642;55.766;37.828;2022-08-24T00:03:46;62.58;;;40.83;;
40635;SDS011;26642;55.766;37.828;2022-08-24T00:06:15;56.28;;;38.55;;
40635;SDS011;26642;55.766;37.828;2022-08-24T00:08:45;58.67;;;41.00;;
40635;SDS011;26642;55.766;37.828;2022-08-24T00:11:12;58.50;;;41.95;;
40635;SDS011;26642;55.766;37.828;2022-08-24T00:13:38;58.42;;;41.83;;
40635;SDS011;26642;55.766;37.828;2022-08-24T00:16:05;58.63;;;43.25;;
40635;SDS011;26642;55.766;37.828;2022-08-24T00:18:32;56.50;;;41.25;;
40635;SDS011;26642;55.766;37.828;2022-08-24T00:20:58;59.05;;;41.78;;
40635;SDS011;26642;55.766;37.828;2022-08-24T00:23:25;53.67;;;40.05;;
40635;SDS011;26642;55.766;37.828;2022-08-24T00:25:52;55.28;;;39.78;;
40635;SDS011;26642;55.766;37.828;2022-08-24T00:28:18;62.40;;;40.63;;
40635;SDS011;26642;55.766;37.828;2022-08-24T00:30:44;57.95;;;40.22;;
40635;SDS011;26642;55.766;37.828;2022-08-24T00:33:10;55.85;;;41.20;;
40635;SDS011;26642;55.766;37.828;2022-08-24T00:35:36;55.40;;;39.90;;
40635;SDS011;26642;55.766;37.828;2022-08-24T00:38:02;55.20;;;39.35;;
40635;SDS011;26642;55.766;37.828;2022-08-24T00:40:30;52.47;;;38.67;;
40635;SDS011;26642;55.766;37.828;2022-08-24T00:42:59;52.38;;;39.05;;
40635;SDS011;26642;55.766;37.828;2022-08-24T00:45:29;62.50;;;42.83;;
40635;SDS011;26642;55.766;37.828;2022-08-24T00:47:59;72.68;;;47.33;;
40635;SDS011;26642;55.766;37.828;2022-08-24T00:53:09;76.05;;;50.25;;
40635;SDS011;26642;55.766;37.828;2022-08-24T00:55:41;59.50;;;42.22;;
40635;SDS011;26642;55.766;37.828;2022-08-24T00:58:17;61.50;;;43.88;;
40635;SDS011;26642;55.766;37.828;2022-08-24T01:00:48;63.08;;;45.40;;
40635;SDS011;26642;55.766;37.828;2022-08-24T01:03:17;66.63;;;45.08;;
40635;SDS011;26642;55.766;37.828;2022-08-24T01:05:44;61.40;;;45.03;;
40635;SDS011;26642;55.766;37.828;2022-08-24T01:08:11;62.38;;;44.15;;
40635;SDS011;26642;55.766;37.828;2022-08-24T01:10:45;63.75;;;45.78;;
40635;SDS011;26642;55.766;37.828;2022-08-24T01:13:15;64.38;;;42.95;;
40635;SDS011;26642;55.766;37.828;2022-08-24T01:15:43;58.17;;;42.25;;
40635;SDS011;26642;55.766;37.828;2022-08-24T01:18:17;57.03;;;41.20;;
40635;SDS011;26642;55.766;37.828;2022-08-24T01:26:06;61.33;;;42.75;;
40635;SDS011;26642;55.766;37.828;2022-08-24T01:28:35;61.92;;;43.10;;
40635;SDS011;26642;55.766;37.828;2022-08-24T01:31:04;57.83;;;42.05;;
40635;SDS011;26642;55.766;37.828;2022-08-24T01:33:31;59.70;;;41.60;;
40635;SDS011;26642;55.766;37.828;2022-08-24T01:36:05;56.78;;;38.85;;
40635;SDS011;26642;55.766;37.828;2022-08-24T01:38:54;56.83;;;41.30;;
40635;SDS011;26642;55.766;37.828;2022-08-24T01:41:25;57.10;;;39.95;;
40635;SDS011;26642;55.766;37.828;2022-08-24T01:43:51;55.42;;;40.40;;
40635;SDS011;26642;55.766;37.828;2022-08-24T01:46:17;66.22;;;40.58;;
40635;SDS011;26642;55.766;37.828;2022-08-24T01:48:43;54.63;;;38.70;;
40635;SDS011;26642;55.766;37.828;2022-08-24T01:51:09;60.25;;;40.58;;
40635;SDS011;26642;55.766;37.828;2022-08-24T01:53:35;58.30;;;40.22;;
40635;SDS011;26642;55.766;37.828;2022-08-24T01:56:01;61.05;;;41.22;;
40635;SDS011;26642;55.766;37.828;2022-08-24T01:58:28;55.58;;;41.47;;
40635;SDS011;26642;55.766;37.828;2022-08-24T02:00:54;56.30;;;41.08;;
40635;SDS011;26642;55.766;37.828;2022-08-24T02:03:20;57.33;;;41.50;;
40635;SDS011;26642;55.766;37.828;2022-08-24T02:05:52;53.75;;;38.78;;
40635;SDS011;26642;55.766;37.828;2022-08-24T02:08:18;57.45;;;42.15;;
40635;SDS011;26642;55.766;37.828;2022-08-24T02:10:44;53.92;;;41.70;;
40635;SDS011;26642;55.766;37.828;2022-08-24T02:13:11;59.42;;;42.70;;
40635;SDS011;26642;55.766;37.828;2022-08-24T02:15:38;56.88;;;42.30;;
40635;SDS011;26642;55.766;37.828;2022-08-24T02:18:06;60.35;;;43.05;;
40635;SDS011;26642;55.766;37.828;2022-08-24T02:20:35;62.20;;;41.58;;
40635;SDS011;26642;55.766;37.828;2022-08-24T02:23:03;60.53;;;42.78;;
40635;SDS011;26642;55.766;37.828;2022-08-24T02:25:31;60.38;;;42.22;;
40635;SDS011;26642;55.766;37.828;2022-08-24T02:27:58;61.35;;;42.17;;
40635;SDS011;26642;55.766;37.828;2022-08-24T02:30:25;61.50;;;42.47;;
40635;SDS011;26642;55.766;37.828;2022-08-24T02:32:52;63.90;;;42.45;;
40635;SDS011;26642;55.766;37.828;2022-08-24T02:35:18;60.90;;;40.78;;
40635;SDS011;26642;55.766;37.828;2022-08-24T02:37:46;60.60;;;41.05;;
40635;SDS011;26642;55.766;37.828;2022-08-24T02:40:14;62.50;;;41.58;;
40635;SDS011;26642;55.766;37.828;2022-08-24T02:42:40;61.10;;;42.13;;
40635;SDS011;26642;55.766;37.828;2022-08-24T02:45:07;59.83;;;41.33;;
40635;SDS011;26642;55.766;37.828;2022-08-24T02:47:34;58.85;;;40.20;;
40635;SDS011;26642;55.766;37.828;2022-08-24T02:50:02;55.92;;;40.67;;
40635;SDS011;26642;55.766;37.828;2022-08-24T02:52:29;59.28;;;39.90;;
40635;SDS011;26642;55.766;37.828;2022-08-24T02:54:56;57.40;;;39.80;;
40635;SDS011;26642;55.766;37.828;2022-08-24T02:57:22;60.95;;;39.85;;
40635;SDS011;26642;55.766;37.828;2022-08-24T02:59:49;52.25;;;40.35;;
40635;SDS011;26642;55.766;37.828;2022-08-24T03:02:15;59.88;;;39.83;;
40635;SDS011;26642;55.766;37.828;2022-08-24T03:04:43;64.75;;;39.90;;
40635;SDS011;26642;55.766;37.828;2022-08-24T03:07:11;63.38;;;40.03;;
40635;SDS011;26642;55.766;37.828;2022-08-24T03:09:37;59.03;;;40.70;;
40635;SDS011;26642;55.766;37.828;2022-08-24T03:12:03;54.90;;;40.38;;
40635;SDS011;26642;55.766;37.828;2022-08-24T03:14:31;62.15;;;40.00;;
40635;SDS011;26642;55.766;37.828;2022-08-24T03:16:59;59.40;;;39.90;;
40635;SDS011;26642;55.766;37.828;2022-08-24T03:19:25;53.08;;;37.97;;
40635;SDS011;26642;55.766;37.828;2022-08-24T03:21:52;57.05;;;37.78;;
40635;SDS011;26642;55.766;37.828;2022-08-24T03:24:19;52.60;;;36.70;;
40635;SDS011;26642;55.766;37.828;2022-08-24T03:26:46;49.55;;;35.15;;
40635;SDS011;26642;55.766;37.828;2022-08-24T03:29:13;48.33;;;34.55;;
40635;SDS011;26642;55.766;37.828;2022-08-24T03:31:39;49.92;;;34.38;;
40635;SDS011;26642;55.766;37.828;2022-08-24T03:34:05;51.63;;;35.10;;
40635;SDS011;26642;55.766;37.828;2022-08-24T03:36:32;46.83;;;33.65;;
40635;SDS011;26642;55.766;37.828;2022-08-24T03:38:58;51.38;;;35.35;;
40635;SDS011;26642;55.766;37.828;2022-08-24T03:41:24;51.80;;;35.65;;
40635;SDS011;26642;55.766;37.828;2022-08-24T03:43:51;54.45;;;36.28;;
40635;SDS011;26642;55.766;37.828;2022-08-24T03:46:21;50.83;;;35.15;;
40635;SDS011;26642;55.766;37.828;2022-08-24T03:48:53;47.28;;;35.03;;
40635;SDS011;26642;55.766;37.828;2022-08-24T03:51:22;51.92;;;34.58;;
40635;SDS011;26642;55.766;37.828;2022-08-24T03:53:50;47.15;;;32.08;;
40635;SDS011;26642;55.766;37.828;2022-08-24T03:56:18;45.72;;;32.97;;
40635;SDS011;26642;55.766;37.828;2022-08-24T03:58:44;47.20;;;31.38;;
40635;SDS011;26642;55.766;37.828;2022-08-24T04:01:12;44.53;;;31.88;;
40635;SDS011;26642;55.766;37.828;2022-08-24T04:03:40;44.70;;;31.13;;
40635;SDS011;26642;55.766;37.828;2022-08-24T04:06:08;47.58;;;31.08;;
40635;SDS011;26642;55.766;37.828;2022-08-24T04:08:35;41.58;;;29.98;;
40635;SDS011;26642;55.766;37.828;2022-08-24T04:11:01;44.50;;;31.30;;
40635;SDS011;26642;55.766;37.828;2022-08-24T04:13:28;42.03;;;30.35;;
40635;SDS011;26642;55.766;37.828;2022-08-24T04:16:08;40.72;;;29.85;;
40635;SDS011;26642;55.766;37.828;2022-08-24T04:18:38;44.65;;;28.55;;
40635;SDS011;26642;55.766;37.828;2022-08-24T04:21:04;36.92;;;23.17;;
40635;SDS011;26642;55.766;37.828;2022-08-24T04:23:31;31.55;;;21.90;;
40635;SDS011;26642;55.766;37.828;2022-08-24T04:26:02;28.27;;;19.38;;
40635;SDS011;26642;55.766;37.828;2022-08-24T04:28:30;29.33;;;20.23;;
40635;SDS011;26642;55.766;37.828;2022-08-24T04:30:56;28.63;;;18.50;;
40635;SDS011;26642;55.766;37.828;2022-08-24T04:35:57;28.02;;;16.25;;
40635;SDS011;26642;55.766;37.828;2022-08-24T04:38:26;25.60;;;16.27;;
40635;SDS011;26642;55.766;37.828;2022-08-24T04:41:14;21.77;;;16.85;;
40635;SDS011;26642;55.766;37.828;2022-08-24T04:43:45;23.70;;;17.50;;
40635;SDS011;26642;55.766;37.828;2022-08-24T04:46:13;29.67;;;17.70;;
40635;SDS011;26642;55.766;37.828;2022-08-24T04:48:41;26.58;;;16.17;;
40635;SDS011;26642;55.766;37.828;2022-08-24T04:51:09;18.95;;;13.95;;
40635;SDS011;26642;55.766;37.828;2022-08-24T04:53:36;19.65;;;14.20;;
40635;SDS011;26642;55.766;37.828;2022-08-24T04:56:03;22.40;;;13.93;;
40635;SDS011;26642;55.766;37.828;2022-08-24T04:58:35;17.38;;;13.55;;
40635;SDS011;26642;55.766;37.828;2022-08-24T05:01:05;18.80;;;12.38;;
40635;SDS011;26642;55.766;37.828;2022-08-24T05:03:33;18.90;;;10.73;;
40635;SDS011;26642;55.766;37.828;2022-08-24T05:05:59;23.52;;;11.38;;
40635;SDS011;26642;55.766;37.828;2022-08-24T05:08:25;15.40;;;10.52;;
40635;SDS011;26642;55.766;37.828;2022-08-24T05:10:51;14.90;;;9.90;;
40635;SDS011;26642;55.766;37.828;2022-08-24T05:13:18;15.82;;;10.88;;
40635;SDS011;26642;55.766;37.828;2022-08-24T05:15:45;19.00;;;10.57;;
40635;SDS011;26642;55.766;37.828;2022-08-24T05:18:13;15.02;;;10.65;;
40635;SDS011;26642;55.766;37.828;2022-08-24T05:20:40;14.50;;;11.57;;
40635;SDS011;26642;55.766;37.828;2022-08-24T05:23:09;15.68;;;10.95;;
40635;SDS011;26642;55.766;37.828;2022-08-24T05:25:38;19.15;;;12.27;;
40635;SDS011;26642;55.766;37.828;2022-08-24T05:28:04;20.85;;;13.38;;
40635;SDS011;26642;55.766;37.828;2022-08-24T05:30:31;22.77;;;13.88;;
40635;SDS011;26642;55.766;37.828;2022-08-24T05:32:57;21.35;;;13.68;;
40635;SDS011;26642;55.766;37.828;2022-08-24T05:35:23;17.27;;;12.68;;
40635;SDS011;26642;55.766;37.828;2022-08-24T05:37:49;22.45;;;13.48;;
40635;SDS011;26642;55.766;37.828;2022-08-24T05:40:17;18.48;;;11.98;;
40635;SDS011;26642;55.766;37.828;2022-08-24T05:42:48;21.45;;;12.93;;
40635;SDS011;26642;55.766;37.828;2022-08-24T05:45:14;16.83;;;13.23;;
40635;SDS011;26642;55.766;37.828;2022-08-24T05:47:41;20.38;;;12.50;;
40635;SDS011;26642;55.766;37.828;2022-08-24T05:50:29;20.88;;;12.40;;
40635;SDS011;26642;55.766;37.828;2022-08-24T05:52:55;24.90;;;12.90;;
40635;SDS011;26642;55.766;37.828;2022-08-24T05:55:21;21.02;;;12.95;;
40635;SDS011;26642;55.766;37.828;2022-08-24T05:57:47;17.30;;;12.73;;
40635;SDS011;26642;55.766;37.828;2022-08-24T06:00:18;20.52;;;13.02;;
40635;SDS011;26642;55.766;37.828;2022-08-24T06:02:48;20.60;;;13.40;;
40635;SDS011;26642;55.766;37.828;2022-08-24T06:05:17;18.35;;;11.60;;
40635;SDS011;26642;55.766;37.828;2022-08-24T06:07:44;18.58;;;13.07;;
40635;SDS011;26642;55.766;37.828;2022-08-24T06:10:11;18.17;;;13.23;;
40635;SDS011;26642;55.766;37.828;2022-08-24T06:12:37;20.67;;;13.15;;
40635;SDS011;26642;55.766;37.828;2022-08-24T06:15:04;18.25;;;12.13;;
40635;SDS011;26642;55.766;37.828;2022-08-24T06:17:31;21.77;;;13.02;;
40635;SDS011;26642;55.766;37.828;2022-08-24T06:19:57;16.08;;;12.18;;
40635;SDS011;26642;55.766;37.828;2022-08-24T06:22:23;20.42;;;12.40;;
40635;SDS011;26642;55.766;37.828;2022-08-24T06:24:49;21.23;;;12.85;;
40635;SDS011;26642;55.766;37.828;2022-08-24T06:27:34;17.58;;;11.60;;
40635;SDS011;26642;55.766;37.828;2022-08-24T06:30:04;21.25;;;11.55;;
40635;SDS011;26642;55.766;37.828;2022-08-24T06:32:43;14.45;;;11.27;;
40635;SDS011;26642;55.766;37.828;2022-08-24T06:35:15;16.38;;;11.60;;
40635;SDS011;26642;55.766;37.828;2022-08-24T06:37:41;22.23;;;12.40;;
40635;SDS011;26642;55.766;37.828;2022-08-24T06:40:07;16.05;;;10.93;;
40635;SDS011;26642;55.766;37.828;2022-08-24T06:42:34;24.42;;;11.63;;
40635;SDS011;26642;55.766;37.828;2022-08-24T06:45:00;26.23;;;11.73;;
40635;SDS011;26642;55.766;37.828;2022-08-24T06:47:29;14.52;;;10.32;;
40635;SDS011;26642;55.766;37.828;2022-08-24T06:49:58;17.50;;;11.52;;
40635;SDS011;26642;55.766;37.828;2022-08-24T06:52:27;19.33;;;11.52;;
40635;SDS011;26642;55.766;37.828;2022-08-24T06:54:53;21.35;;;11.05;;
40635;SDS011;26642;55.766;37.828;2022-08-24T06:57:19;18.50;;;9.95;;
40635;SDS011;26642;55.766;37.828;2022-08-24T06:59:45;19.60;;;10.00;;
40635;SDS011;26642;55.766;37.828;2022-08-24T07:02:11;17.10;;;9.52;;
40635;SDS011;26642;55.766;37.828;2022-08-24T07:04:41;19.25;;;10.02;;
40635;SDS011;26642;55.766;37.828;2022-08-24T07:07:27;22.30;;;10.45;;
40635;SDS011;26642;55.766;37.828;2022-08-24T07:09:53;18.65;;;9.65;;
40635;SDS011;26642;55.766;37.828;2022-08-24T07:12:19;14.32;;;8.70;;
40635;SDS011;26642;55.766;37.828;2022-08-24T07:14:45;14.95;;;9.15;;
40635;SDS011;26642;55.766;37.828;2022-08-24T07:17:11;17.95;;;9.75;;
40635;SDS011;26642;55.766;37.828;2022-08-24T07:19:38;20.55;;;8.20;;
40635;SDS011;26642;55.766;37.828;2022-08-24T07:22:05;13.70;;;9.02;;
40635;SDS011;26642;55.766;37.828;2022-08-24T07:24:32;14.45;;;8.50;;
40635;SDS011;26642;55.766;37.828;2022-08-24T07:26:59;16.42;;;8.10;;
40635;SDS011;26642;55.766;37.828;2022-08-24T07:29:25;17.05;;;8.73;;
40635;SDS011;26642;55.766;37.828;2022-08-24T07:31:51;20.00;;;8.98;;
40635;SDS011;26642;55.766;37.828;2022-08-24T07:34:29;17.45;;;8.60;;
40635;SDS011;26642;55.766;37.828;2022-08-24T07:36:55;17.73;;;8.50;;
40635;SDS011;26642;55.766;37.828;2022-08-24T07:39:23;15.13;;;7.72;;
40635;SDS011;26642;55.766;37.828;2022-08-24T07:41:49;12.07;;;7.10;;
40635;SDS011;26642;55.766;37.828;2022-08-24T07:44:16;15.70;;;7.43;;
40635;SDS011;26642;55.766;37.828;2022-08-24T07:46:43;13.23;;;7.60;;
40635;SDS011;26642;55.766;37.828;2022-08-24T07:49:11;16.35;;;7.90;;
40635;SDS011;26642;55.766;37.828;2022-08-24T07:51:37;20.10;;;8.05;;
40635;SDS011;26642;55.766;37.828;2022-08-24T07:54:04;13.73;;;7.30;;
40635;SDS011;26642;55.766;37.828;2022-08-24T07:56:36;15.40;;;6.90;;
40635;SDS011;26642;55.766;37.828;2022-08-24T07:59:02;13.23;;;6.20;;
40635;SDS011;26642;55.766;37.828;2022-08-24T08:01:29;14.32;;;6.75;;
40635;SDS011;26642;55.766;37.828;2022-08-24T08:03:55;18.75;;;6.38;;
40635;SDS011;26642;55.766;37.828;2022-08-24T08:06:21;10.82;;;5.88;;
40635;SDS011;26642;55.766;37.828;2022-08-24T08:08:52;15.43;;;4.90;;
40635;SDS011;26642;55.766;37.828;2022-08-24T08:11:19;14.82;;;5.82;;
40635;SDS011;26642;55.766;37.828;2022-08-24T08:13:45;16.13;;;5.70;;
40635;SDS011;26642;55.766;37.828;2022-08-24T08:16:11;11.02;;;5.30;;
40635;SDS011;26642;55.766;37.828;2022-08-24T08:18:38;9.23;;;5.40;;
40635;SDS011;26642;55.766;37.828;2022-08-24T08:21:08;12.43;;;6.13;;
40635;SDS011;26642;55.766;37.828;2022-08-24T08:23:54;8.77;;;5.85;;
40635;SDS011;26642;55.766;37.828;2022-08-24T08:26:39;12.02;;;5.78;;
40635;SDS011;26642;55.766;37.828;2022-08-24T08:29:16;9.75;;;5.72;;
40635;SDS011;26642;55.766;37.828;2022-08-24T08:31:43;9.95;;;5.60;;
40635;SDS011;26642;55.766;37.828;2022-08-24T08:34:10;10.98;;;5.47;;
40635;SDS011;26642;55.766;37.828;2022-08-24T08:36:38;11.45;;;5.43;;
40635;SDS011;26642;55.766;37.828;2022-08-24T08:39:07;12.43;;;5.32;;
40635;SDS011;26642;55.766;37.828;2022-08-24T08:44:44;9.77;;;4.97;;
40635;SDS011;26642;55.766;37.828;2022-08-24T09:04:21;8.00;;;4.40;;
40635;SDS011;26642;55.766;37.828;2022-08-24T09:15:42;6.75;;;3.50;;
40635;SDS011;26642;55.766;37.828;2022-08-24T09:29:22;8.98;;;2.90;;
40635;SDS011;26642;55.766;37.828;2022-08-24T09:40:35;7.28;;;2.75;;
40635;SDS011;26642;55.766;37.828;2022-08-24T09:43:09;4.13;;;2.25;;
40635;SDS011;26642;55.766;37.828;2022-08-24T09:46:22;5.90;;;2.30;;
40635;SDS011;26642;55.766;37.828;2022-08-24T09:49:12;4.85;;;2.15;;
40635;SDS011;26642;55.766;37.828;2022-08-24T09:57:24;7.63;;;2.55;;
40635;SDS011;26642;55.766;37.828;2022-08-24T10:19:52;6.18;;;2.88;;
40635;SDS011;26642;55.766;37.828;2022-08-24T10:25:30;7.90;;;2.60;;
40635;SDS011;26642;55.766;37.828;2022-08-24T10:28:32;4.82;;;2.65;;
40635;SDS011;26642;55.766;37.828;2022-08-24T10:40:09;5.67;;;2.97;;
40635;SDS011;26642;55.766;37.828;2022-08-24T10:50:52;8.90;;;2.90;;
40635;SDS011;26642;55.766;37.828;2022-08-24T10:53:22;5.32;;;2.78;;
40635;SDS011;26642;55.766;37.828;2022-08-24T10:55:59;5.03;;;2.47;;
40635;SDS011;26642;55.766;37.828;2022-08-24T10:59:10;6.30;;;2.50;;
40635;SDS011;26642;55.766;37.828;2022-08-24T11:04:37;6.25;;;2.70;;
40635;SDS011;26642;55.766;37.828;2022-08-24T11:07:17;6.35;;;2.13;;
40635;SDS011;26642;55.766;37.828;2022-08-24T11:12:31;9.48;;;3.03;;
40635;SDS011;26642;55.766;37.828;2022-08-24T11:15:23;7.97;;;2.50;;
40635;SDS011;26642;55.766;37.828;2022-08-24T11:17:56;6.15;;;2.63;;
40635;SDS011;26642;55.766;37.828;2022-08-24T11:22:59;5.13;;;2.40;;
40635;SDS011;26642;55.766;37.828;2022-08-24T11:25:36;5.97;;;2.72;;
40635;SDS011;26642;55.766;37.828;2022-08-24T11:31:00;4.90;;;2.60;;
40635;SDS011;26642;55.766;37.828;2022-08-24T11:33:32;6.53;;;2.10;;
40635;SDS011;26642;55.766;37.828;2022-08-24T11:38:40;8.50;;;2.85;;
40635;SDS011;26642;55.766;37.828;2022-08-24T11:52:24;5.00;;;2.20;;
40635;SDS011;26642;55.766;37.828;2022-08-24T12:17:15;4.43;;;2.05;;
40635;SDS011;26642;55.766;37.828;2022-08-24T12:19:54;5.40;;;2.22;;
40635;SDS011;26642;55.766;37.828;2022-08-24T12:22:30;6.90;;;1.80;;
40635;SDS011;26642;55.766;37.828;2022-08-24T12:25:00;3.30;;;1.63;;
40635;SDS011;26642;55.766;37.828;2022-08-24T12:27:48;8.32;;;2.05;;
40635;SDS011;26642;55.766;37.828;2022-08-24T12:30:16;2.13;;;1.73;;
40635;SDS011;26642;55.766;37.828;2022-08-24T12:33:04;2.60;;;1.60;;
40635;SDS011;26642;55.766;37.828;2022-08-24T12:40:52;7.53;;;1.70;;
40635;SDS011;26642;55.766;37.828;2022-08-24T12:43:24;8.02;;;1.92;;
40635;SDS011;26642;55.766;37.828;2022-08-24T12:45:57;3.03;;;1.30;;
40635;SDS011;26642;55.766;37.828;2022-08-24T12:59:25;4.85;;;1.52;;
40635;SDS011;26642;55.766;37.828;2022-08-24T13:04:43;4.00;;;1.60;;
40635;SDS011;26642;55.766;37.828;2022-08-24T13:10:04;2.95;;;1.45;;
40635;SDS011;26642;55.766;37.828;2022-08-24T13:17:56;2.80;;;1.50;;
40635;SDS011;26642;55.766;37.828;2022-08-24T13:30:55;3.10;;;1.10;;
40635;SDS011;26642;55.766;37.828;2022-08-24T13:42:08;3.55;;;1.30;;
40635;SDS011;26642;55.766;37.828;2022-08-24T13:45:00;3.75;;;1.30;;
40635;SDS011;26642;55.766;37.828;2022-08-24T13:47:30;4.10;;;1.45;;
40635;SDS011;26642;55.766;37.828;2022-08-24T13:56:17;2.70;;;1.30;;
40635;SDS011;26642;55.766;37.828;2022-08-24T14:04:47;4.53;;;1.13;;
40635;SDS011;26642;55.766;37.828;2022-08-24T14:07:46;1.48;;;0.88;;
40635;SDS011;26642;55.766;37.828;2022-08-24T14:22:13;2.13;;;0.95;;
40635;SDS011;26642;55.766;37.828;2022-08-24T14:32:44;1.60;;;0.90;;
40635;SDS011;26642;55.766;37.828;2022-08-24T14:46:52;3.28;;;1.20;;
40635;SDS011;26642;55.766;37.828;2022-08-24T14:49:23;2.97;;;1.40;;
40635;SDS011;26642;55.766;37.828;2022-08-24T14:52:14;3.85;;;1.30;;
40635;SDS011;26642;55.766;37.828;2022-08-24T14:54:47;3.22;;;1.10;;
40635;SDS011;26642;55.766;37.828;2022-08-24T14:57:43;6.78;;;1.40;;
40635;SDS011;26642;55.766;37.828;2022-08-24T15:00:17;3.42;;;1.25;;
40635;SDS011;26642;55.766;37.828;2022-08-24T15:02:50;5.38;;;1.33;;
40635;SDS011;26642;55.766;37.828;2022-08-24T15:05:22;4.63;;;1.42;;
40635;SDS011;26642;55.766;37.828;2022-08-24T15:08:06;2.80;;;1.17;;
40635;SDS011;26642;55.766;37.828;2022-08-24T15:16:12;2.05;;;1.40;;
40635;SDS011;26642;55.766;37.828;2022-08-24T15:29:18;3.00;;;1.60;;
40635;SDS011;26642;55.766;37.828;2022-08-24T15:31:56;6.60;;;1.45;;
40635;SDS011;26642;55.766;37.828;2022-08-24T15:34:42;9.30;;;1.70;;
40635;SDS011;26642;55.766;37.828;2022-08-24T15:39:55;4.25;;;1.35;;
40635;SDS011;26642;55.766;37.828;2022-08-24T15:42:21;6.93;;;1.70;;
40635;SDS011;26642;55.766;37.828;2022-08-24T15:44:48;4.07;;;1.48;;
40635;SDS011;26642;55.766;37.828;2022-08-24T15:47:20;8.52;;;2.00;;
40635;SDS011;26642;55.766;37.828;2022-08-24T15:49:54;4.20;;;1.67;;
40635;SDS011;26642;55.766;37.828;2022-08-24T15:55:40;5.65;;;1.83;;
40635;SDS011;26642;55.766;37.828;2022-08-24T16:01:17;6.25;;;1.83;;
40635;SDS011;26642;55.766;37.828;2022-08-24T16:04:07;3.00;;;1.90;;
40635;SDS011;26642;55.766;37.828;2022-08-24T16:06:43;8.13;;;1.92;;
40635;SDS011;26642;55.766;37.828;2022-08-24T16:09:31;5.25;;;2.13;;
40635;SDS011;26642;55.766;37.828;2022-08-24T16:14:35;7.85;;;2.75;;
40635;SDS011;26642;55.766;37.828;2022-08-24T16:17:46;6.45;;;2.88;;
40635;SDS011;26642;55.766;37.828;2022-08-24T16:20:31;6.85;;;3.40;;
40635;SDS011;26642;55.766;37.828;2022-08-24T16:23:02;10.05;;;3.35;;
40635;SDS011;26642;55.766;37.828;2022-08-24T16:25:32;11.93;;;4.38;;
40635;SDS011;26642;55.766;37.828;2022-08-24T16:30:56;24.00;;;11.85;;
40635;SDS011;26642;55.766;37.828;2022-08-24T16:35:58;36.25;;;19.73;;
40635;SDS011;26642;55.766;37.828;2022-08-24T16:38:26;29.85;;;16.98;;
40635;SDS011;26642;55.766;37.828;2022-08-24T16:40:57;29.73;;;17.50;;
40635;SDS011;26642;55.766;37.828;2022-08-24T16:43:27;31.85;;;17.33;;
40635;SDS011;26642;55.766;37.828;2022-08-24T16:45:55;26.58;;;16.45;;
40635;SDS011;26642;55.766;37.828;2022-08-24T16:48:23;26.77;;;11.98;;
40635;SDS011;26642;55.766;37.828;2022-08-24T16:50:49;18.88;;;10.82;;
40635;SDS011;26642;55.766;37.828;2022-08-24T16:53:15;24.77;;;13.10;;
40635;SDS011;26642;55.766;37.828;2022-08-24T16:55:41;28.80;;;13.70;;
40635;SDS011;26642;55.766;37.828;2022-08-24T16:58:07;24.70;;;12.32;;
40635;SDS011;26642;55.766;37.828;2022-08-24T17:00:34;21.73;;;10.63;;
40635;SDS011;26642;55.766;37.828;2022-08-24T17:02:59;20.38;;;10.85;;
40635;SDS011;26642;55.766;37.828;2022-08-24T17:05:26;22.98;;;10.88;;
40635;SDS011;26642;55.766;37.828;2022-08-24T17:07:52;25.42;;;11.50;;
40635;SDS011;26642;55.766;37.828;2022-08-24T17:10:18;19.63;;;11.68;;
40635;SDS011;26642;55.766;37.828;2022-08-24T17:12:47;30.63;;;11.55;;
40635;SDS011;26642;55.766;37.828;2022-08-24T17:15:13;19.52;;;10.63;;
40635;SDS011;26642;55.766;37.828;2022-08-24T17:17:40;27.50;;;12.77;;
40635;SDS011;26642;55.766;37.828;2022-08-24T17:20:18;23.90;;;13.70;;
40635;SDS011;26642;55.766;37.828;2022-08-24T17:22:45;33.33;;;16.65;;
40635;SDS011;26642;55.766;37.828;2022-08-24T17:25:10;32.85;;;15.32;;
40635;SDS011;26642;55.766;37.828;2022-08-24T17:27:37;29.58;;;13.48;;
40635;SDS011;26642;55.766;37.828;2022-08-24T17:30:03;22.60;;;13.10;;
40635;SDS011;26642;55.766;37.828;2022-08-24T17:32:30;22.08;;;11.77;;
40635;SDS011;26642;55.766;37.828;2022-08-24T17:34:56;21.67;;;11.75;;
40635;SDS011;26642;55.766;37.828;2022-08-24T17:37:23;23.73;;;11.52;;
40635;SDS011;26642;55.766;37.828;2022-08-24T17:39:51;25.83;;;12.07;;
40635;SDS011;26642;55.766;37.828;2022-08-24T17:42:20;25.80;;;10.90;;
40635;SDS011;26642;55.766;37.828;2022-08-24T17:44:46;20.23;;;10.32;;
40635;SDS011;26642;55.766;37.828;2022-08-24T17:47:11;19.63;;;10.35;;
40635;SDS011;26642;55.766;37.828;2022-08-24T17:49:37;18.35;;;9.45;;
40635;SDS011;26642;55.766;37.828;2022-08-24T17:52:04;21.17;;;9.60;;
40635;SDS011;26642;55.766;37.828;2022-08-24T17:54:30;23.88;;;9.70;;
40635;SDS011;26642;55.766;37.828;2022-08-24T17:56:57;18.92;;;9.75;;
40635;SDS011;26642;55.766;37.828;2022-08-24T17:59:27;21.77;;;9.45;;
40635;SDS011;26642;55.766;37.828;2022-08-24T18:01:56;18.58;;;9.98;;
40635;SDS011;26642;55.766;37.828;2022-08-24T18:04:25;23.92;;;9.98;;
40635;SDS011;26642;55.766;37.828;2022-08-24T18:06:54;21.65;;;10.05;;
40635;SDS011;26642;55.766;37.828;2022-08-24T18:11:51;33.10;;;10.95;;
40635;SDS011;26642;55.766;37.828;2022-08-24T18:14:17;22.80;;;10.65;;
40635;SDS011;26642;55.766;37.828;2022-08-24T18:16:43;26.25;;;12.70;;
40635;SDS011;26642;55.766;37.828;2022-08-24T18:19:09;25.40;;;12.20;;
40635;SDS011;26642;55.766;37.828;2022-08-24T18:21:38;30.08;;;11.73;;
40635;SDS011;26642;55.766;37.828;2022-08-24T18:24:04;23.42;;;12.20;;
40635;SDS011;26642;55.766;37.828;2022-08-24T18:26:30;40.05;;;13.05;;
40635;SDS011;26642;55.766;37.828;2022-08-24T18:28:57;31.23;;;13.35;;
40635;SDS011;26642;55.766;37.828;2022-08-24T18:31:27;31.35;;;14.23;;
40635;SDS011;26642;55.766;37.828;2022-08-24T18:33:56;26.90;;;14.15;;
40635;SDS011;26642;55.766;37.828;2022-08-24T18:36:22;34.97;;;14.32;;
40635;SDS011;26642;55.766;37.828;2022-08-24T18:38:48;50.38;;;15.05;;
40635;SDS011;26642;55.766;37.828;2022-08-24T18:41:14;51.22;;;15.18;;
40635;SDS011;26642;55.766;37.828;2022-08-24T18:43:40;43.72;;;13.85;;
40635;SDS011;26642;55.766;37.828;2022-08-24T18:46:07;49.35;;;15.63;;
40635;SDS011;26642;55.766;37.828;2022-08-24T18:48:33;45.38;;;15.90;;
40635;SDS011;26642;55.766;37.828;2022-08-24T18:51:00;36.78;;;14.52;;
40635;SDS011;26642;55.766;37.828;2022-08-24T18:53:27;41.80;;;14.27;;
40635;SDS011;26642;55.766;37.828;2022-08-24T18:55:53;40.33;;;12.75;;
40635;SDS011;26642;55.766;37.828;2022-08-24T18:58:19;34.13;;;12.48;;
40635;SDS011;26642;55.766;37.828;2022-08-24T19:00:45;21.10;;;11.68;;
40635;SDS011;26642;55.766;37.828;2022-08-24T19:03:14;30.83;;;11.70;;
40635;SDS011;26642;55.766;37.828;2022-08-24T19:05:43;25.67;;;11.52;;
40635;SDS011;26642;55.766;37.828;2022-08-24T19:08:09;30.45;;;11.30;;
40635;SDS011;26642;55.766;37.828;2022-08-24T19:10:35;31.10;;;11.93;;